createdAt,value
2022-11-09T00:00:07.089Z,99089.75
2022-11-09T00:00:19.582Z,99097.56
2022-11-09T00:00:31.511Z,99102.78
2022-11-09T00:00:44.296Z,99097.56
2022-11-09T00:01:01.298Z,99103.72
2022-11-09T00:01:13.225Z,99104.63
2022-11-09T00:01:27.351Z,99096.81
2022-11-09T00:01:39.546Z,99104.63
2022-11-09T00:01:51.546Z,99101.13
2022-11-09T00:02:05.376Z,99101.13
2022-11-09T00:02:17.284Z,99095.91
2022-11-09T00:02:29.203Z,99103.72
2022-11-09T00:02:43.975Z,99095.91
2022-11-09T00:02:56.043Z,99104.69
2022-11-09T00:03:08.092Z,99112.75
2022-11-09T00:03:20.345Z,99106.78
2022-11-09T00:03:32.627Z,99110.31
2022-11-09T00:03:44.765Z,99100.84
2022-11-09T00:04:01.946Z,99104.34
2022-11-09T00:04:13.888Z,99106.06
2022-11-09T00:04:25.812Z,99107.06
2022-11-09T00:04:37.713Z,99109.69
2022-11-09T00:04:49.686Z,99108.91
2022-11-09T00:05:01.638Z,99108.22
2022-11-09T00:05:13.555Z,99107.31
2022-11-09T00:05:25.456Z,99115.97
2022-11-09T00:05:37.964Z,99110.75
2022-11-09T00:05:57.086Z,99101.16
2022-11-09T00:06:09.215Z,99108.91
2022-11-09T00:06:21.160Z,99107.25
2022-11-09T00:06:34.003Z,99104.53
2022-11-09T00:06:46.013Z,99107.91
2022-11-09T00:06:58.052Z,99112.22
2022-11-09T00:07:10.130Z,99108.63
2022-11-09T00:07:22.201Z,99110.31
2022-11-09T00:07:34.132Z,99111.22
2022-11-09T00:07:46.086Z,99104.22
2022-11-09T00:07:57.993Z,99108.78
2022-11-09T00:08:11.446Z,99115.81
2022-11-09T00:08:23.439Z,99112.53
2022-11-09T00:08:37.691Z,99108.16
2022-11-09T00:08:49.696Z,99108.44
2022-11-09T00:09:07.431Z,99112.06
2022-11-09T00:09:19.922Z,99115.63
2022-11-09T00:09:31.934Z,99103.59
2022-11-09T00:09:43.923Z,99104.59
2022-11-09T00:09:55.922Z,99109.09
2022-11-09T00:10:08.242Z,99109.16
2022-11-09T00:10:20.267Z,99103.97
2022-11-09T00:10:33.102Z,99103.88
2022-11-09T00:10:45.037Z,99108.28
2022-11-09T00:11:03.751Z,99103.75
2022-11-09T00:11:16.069Z,99101.81
2022-11-09T00:11:28.053Z,99100.91
2022-11-09T00:11:39.958Z,99099.09
2022-11-09T00:11:53.870Z,99100.91
2022-11-09T00:12:07.402Z,99100.91
2022-11-09T00:12:19.347Z,99098.16
2022-11-09T00:12:31.263Z,99103.28
2022-11-09T00:12:43.168Z,99099.69
2022-11-09T00:12:55.067Z,99100.50
2022-11-09T00:13:07.001Z,99103.94
2022-11-09T00:13:19.234Z,99101.25
2022-11-09T00:13:31.808Z,99109.06
2022-11-09T00:13:44.952Z,99104.63
2022-11-09T00:13:56.924Z,99108.91
2022-11-09T00:14:14.288Z,99105.47
2022-11-09T00:14:26.214Z,99108.06
2022-11-09T00:14:38.745Z,99112.28
2022-11-09T00:14:50.674Z,99112.28
2022-11-09T00:15:02.613Z,99107.06
2022-11-09T00:15:14.548Z,99109.84
2022-11-09T00:15:26.462Z,99112.28
2022-11-09T00:15:38.366Z,99110.91
2022-11-09T00:15:50.399Z,99107.59
2022-11-09T00:16:02.363Z,99107.75
2022-11-09T00:16:16.760Z,99106.91
2022-11-09T00:16:28.873Z,99111.47
2022-11-09T00:16:40.882Z,99109.81
2022-11-09T00:16:52.820Z,99109.81
2022-11-09T00:17:04.910Z,99107.13
2022-11-09T00:17:16.855Z,99112.19
2022-11-09T00:17:28.773Z,99105.19
2022-11-09T00:17:40.678Z,99113.03
2022-11-09T00:17:52.592Z,99110.41
2022-11-09T00:18:04.554Z,99109.50
2022-11-09T00:18:16.472Z,99118.09
2022-11-09T00:18:29.631Z,99114.56
2022-11-09T00:18:47.253Z,99117.09
2022-11-09T00:18:59.329Z,99108.38
2022-11-09T00:19:13.197Z,99116.13
2022-11-09T00:19:25.160Z,99108.22
2022-11-09T00:19:37.157Z,99114.28
2022-11-09T00:19:49.048Z,99116.13
2022-11-09T00:20:00.967Z,99115.19
2022-11-09T00:20:12.949Z,99110.97
2022-11-09T00:20:24.859Z,99115.72
2022-11-09T00:20:36.780Z,99110.03
2022-11-09T00:20:48.831Z,99108.28
2022-11-09T00:21:08.839Z,99115.31
2022-11-09T00:21:23.215Z,99113.72
2022-11-09T00:21:35.239Z,99114.97
2022-11-09T00:21:47.222Z,99115.03
2022-11-09T00:21:59.147Z,99118.78
2022-11-09T00:22:11.144Z,99114.47
2022-11-09T00:22:23.068Z,99109.44
2022-11-09T00:22:35.008Z,99121.53
2022-11-09T00:22:50.275Z,99118.84
2022-11-09T00:23:02.213Z,99118.84
2022-11-09T00:23:14.233Z,99123.22
2022-11-09T00:23:26.156Z,99118.97
2022-11-09T00:23:38.355Z,99123.34
2022-11-09T00:23:51.092Z,99120.09
2022-11-09T00:24:03.135Z,99124.38
2022-11-09T00:24:15.257Z,99125.25
2022-11-09T00:24:27.144Z,99120.81
2022-11-09T00:24:39.080Z,99122.59
2022-11-09T00:24:51.019Z,99116.47
2022-11-09T00:25:02.942Z,99121.69
2022-11-09T00:25:15.296Z,99122.66
2022-11-09T00:25:27.251Z,99117.50
2022-11-09T00:25:39.177Z,99120.09
2022-11-09T00:25:51.152Z,99116.56
2022-11-09T00:26:05.066Z,99118.31
2022-11-09T00:26:18.588Z,99123.34
2022-11-09T00:26:30.510Z,99120.75
2022-11-09T00:26:42.818Z,99120.09
2022-11-09T00:26:54.764Z,99126.16
2022-11-09T00:27:06.679Z,99124.44
2022-11-09T00:27:18.588Z,99119.41
2022-11-09T00:27:30.503Z,99121.84
2022-11-09T00:27:42.506Z,99116.53
2022-11-09T00:27:54.439Z,99120.69
2022-11-09T00:28:06.427Z,99125.75
2022-11-09T00:28:18.355Z,99117.72
2022-11-09T00:28:30.347Z,99122.78
2022-11-09T00:28:42.294Z,99115.72
2022-11-09T00:28:54.308Z,99117.44
2022-11-09T00:29:06.411Z,99114.06
2022-11-09T00:29:18.353Z,99114.84
2022-11-09T00:29:30.334Z,99114.59
2022-11-09T00:29:42.337Z,99119.69
2022-11-09T00:29:54.255Z,99114.38
2022-11-09T00:30:07.023Z,99122.50
2022-11-09T00:30:19.033Z,99119.41
2022-11-09T00:30:31.425Z,99111.09
2022-11-09T00:30:43.437Z,99114.66
2022-11-09T00:31:05.841Z,99120.94
2022-11-09T00:31:20.571Z,99116.56
2022-11-09T00:31:32.562Z,99118.31
2022-11-09T00:31:44.484Z,99115.03
2022-11-09T00:31:56.393Z,99111.53
2022-11-09T00:32:08.312Z,99113.09
2022-11-09T00:32:25.220Z,99110.34
2022-11-09T00:32:39.636Z,99107.91
2022-11-09T00:32:51.567Z,99114.84
2022-11-09T00:33:03.555Z,99112.94
2022-11-09T00:33:15.528Z,99109.69
2022-11-09T00:33:27.692Z,99112.16
2022-11-09T00:33:39.685Z,99109.44
2022-11-09T00:33:54.203Z,99108.28
2022-11-09T00:34:06.106Z,99111.53
2022-11-09T00:34:18.029Z,99107.03
2022-11-09T00:34:29.936Z,99113.91
2022-11-09T00:34:41.937Z,99096.31
2022-11-09T00:34:53.845Z,99108.28
2022-11-09T00:35:06.168Z,99101.22
2022-11-09T00:35:18.064Z,99109.88
2022-11-09T00:35:30.040Z,99101.06
2022-11-09T00:35:41.958Z,99106.97
2022-11-09T00:35:54.786Z,99102.59
2022-11-09T00:36:10.302Z,99102.47
2022-11-09T00:36:24.250Z,99103.16
2022-11-09T00:36:36.185Z,99103.88
2022-11-09T00:36:48.100Z,99105.47
2022-11-09T00:36:59.986Z,99105.41
2022-11-09T00:37:11.957Z,99104.41
2022-11-09T00:37:24.156Z,99100.78
2022-11-09T00:37:36.209Z,99107.53
2022-11-09T00:37:48.222Z,99113.53
2022-11-09T00:38:00.276Z,99106.47
2022-11-09T00:38:12.235Z,99107.22
2022-11-09T00:38:24.243Z,99109.69
2022-11-09T00:38:37.382Z,99101.81
2022-11-09T00:38:52.482Z,99106.16
2022-11-09T00:39:04.535Z,99114.16
2022-11-09T00:39:16.537Z,99113.53
2022-11-09T00:39:28.452Z,99104.78
2022-11-09T00:39:40.354Z,99110.00
2022-11-09T00:39:52.245Z,99107.31
2022-11-09T00:40:04.528Z,99112.75
2022-11-09T00:40:16.642Z,99117.06
2022-11-09T00:40:28.546Z,99120.44
2022-11-09T00:40:40.471Z,99116.00
2022-11-09T00:40:52.462Z,99111.53
2022-11-09T00:41:05.594Z,99115.75
2022-11-09T00:41:17.789Z,99115.69
2022-11-09T00:41:29.693Z,99109.53
2022-11-09T00:41:41.656Z,99112.91
2022-11-09T00:41:53.581Z,99114.63
2022-11-09T00:42:07.231Z,99109.31
2022-11-09T00:42:19.144Z,99105.72
2022-11-09T00:42:31.069Z,99107.50
2022-11-09T00:42:42.986Z,99110.22
2022-11-09T00:42:54.901Z,99115.53
2022-11-09T00:43:06.804Z,99110.41
2022-11-09T00:43:19.192Z,99113.78
2022-11-09T00:43:31.322Z,99104.19
2022-11-09T00:43:43.215Z,99116.28
2022-11-09T00:43:55.354Z,99112.78
2022-11-09T00:44:07.541Z,99116.28
2022-11-09T00:44:19.556Z,99118.13
2022-11-09T00:44:31.539Z,99102.47
2022-11-09T00:44:43.435Z,99112.16
2022-11-09T00:44:55.396Z,99111.25
2022-11-09T00:45:07.808Z,99114.63
2022-11-09T00:45:20.300Z,99116.28
2022-11-09T00:45:32.247Z,99116.28
2022-11-09T00:45:44.215Z,99116.16
2022-11-09T00:45:56.203Z,99112.59
2022-11-09T00:46:08.730Z,99115.16
2022-11-09T00:46:21.006Z,99111.53
2022-11-09T00:46:33.290Z,99109.78
2022-11-09T00:46:45.474Z,99117.50
2022-11-09T00:46:57.407Z,99114.00
2022-11-09T00:47:09.321Z,99119.22
2022-11-09T00:47:21.227Z,99111.47
2022-11-09T00:47:33.204Z,99110.75
2022-11-09T00:47:45.096Z,99115.22
2022-11-09T00:47:57.012Z,99116.91
2022-11-09T00:48:09.207Z,99113.47
2022-11-09T00:48:21.503Z,99107.38
2022-11-09T00:48:34.067Z,99118.00
2022-11-09T00:48:46.504Z,99112.78
2022-11-09T00:48:58.499Z,99119.66
2022-11-09T00:49:10.391Z,99116.16
2022-11-09T00:49:22.338Z,99114.38
2022-11-09T00:49:34.355Z,99121.50
2022-11-09T00:49:46.292Z,99126.03
2022-11-09T00:49:58.225Z,99119.97
2022-11-09T00:50:10.293Z,99133.16
2022-11-09T00:50:22.186Z,99129.56
2022-11-09T00:50:34.163Z,99123.50
2022-11-09T00:50:53.096Z,99116.44
2022-11-09T00:51:05.630Z,99127.59
2022-11-09T00:51:18.484Z,99119.66
2022-11-09T00:51:30.378Z,99117.81
2022-11-09T00:51:42.296Z,99116.75
2022-11-09T00:51:54.534Z,99117.59
2022-11-09T00:52:06.460Z,99116.75
2022-11-09T00:52:18.356Z,99117.50
2022-11-09T00:52:30.279Z,99115.97
2022-11-09T00:52:42.803Z,99123.91
2022-11-09T00:52:54.708Z,99121.38
2022-11-09T00:53:06.645Z,99124.88
2022-11-09T00:53:19.783Z,99119.66
2022-11-09T00:53:32.716Z,99127.72
2022-11-09T00:53:48.125Z,99128.56
2022-11-09T00:54:00.013Z,99118.00
2022-11-09T00:54:12.148Z,99124.88
2022-11-09T00:54:24.209Z,99117.06
2022-11-09T00:54:36.352Z,99121.50
2022-11-09T00:54:48.252Z,99118.00
2022-11-09T00:55:00.185Z,99124.03
2022-11-09T00:55:12.104Z,99124.03
2022-11-09T00:55:24.475Z,99126.56
2022-11-09T00:55:36.417Z,99127.47
2022-11-09T00:56:01.817Z,99132.94
2022-11-09T00:56:14.454Z,99126.81
2022-11-09T00:56:26.351Z,99128.56
2022-11-09T00:56:38.314Z,99127.19
2022-11-09T00:56:50.232Z,99123.13
2022-11-09T00:57:02.201Z,99124.94
2022-11-09T00:57:14.174Z,99130.88
2022-11-09T00:57:26.055Z,99126.56
2022-11-09T00:57:38.009Z,99128.25
2022-11-09T00:57:50.796Z,99132.69
2022-11-09T00:58:02.695Z,99127.56
2022-11-09T00:58:14.576Z,99131.00
2022-11-09T00:58:28.399Z,99128.47
2022-11-09T00:58:41.042Z,99128.56
2022-11-09T00:58:55.545Z,99131.00
2022-11-09T00:59:10.607Z,99131.06
2022-11-09T00:59:22.533Z,99128.69
2022-11-09T00:59:34.441Z,99132.84
2022-11-09T00:59:46.468Z,99127.63
2022-11-09T00:59:58.368Z,99134.84
2022-11-09T01:00:11.195Z,99127.16
2022-11-09T01:00:25.738Z,99128.63
2022-11-09T01:00:37.633Z,99128.41
2022-11-09T01:00:49.906Z,99136.06
2022-11-09T01:01:13.751Z,99135.16
2022-11-09T01:01:25.910Z,99131.63
2022-11-09T01:01:38.038Z,99136.69
2022-11-09T01:01:50.066Z,99134.91
2022-11-09T01:02:02.005Z,99135.78
2022-11-09T01:02:13.919Z,99135.91
2022-11-09T01:02:25.909Z,99140.53
2022-11-09T01:02:37.817Z,99137.91
2022-11-09T01:02:50.280Z,99139.88
2022-11-09T01:03:02.187Z,99142.66
2022-11-09T01:03:14.153Z,99141.72
2022-11-09T01:03:27.097Z,99143.63
2022-11-09T01:03:39.493Z,99140.81
2022-11-09T01:03:51.790Z,99141.59
2022-11-09T01:04:03.701Z,99144.09
2022-11-09T01:04:15.599Z,99144.97
2022-11-09T01:04:27.823Z,99146.81
2022-11-09T01:04:39.740Z,99145.88
2022-11-09T01:04:51.631Z,99141.44
2022-11-09T01:05:03.869Z,99147.41
2022-11-09T01:05:15.963Z,99149.13
2022-11-09T01:05:27.902Z,99144.03
2022-11-09T01:05:39.861Z,99139.59
2022-11-09T01:05:52.516Z,99153.41
2022-11-09T01:06:05.249Z,99150.94
2022-11-09T01:06:25.544Z,99150.78
2022-11-09T01:06:37.536Z,99146.41
2022-11-09T01:06:49.653Z,99148.03
2022-11-09T01:07:01.639Z,99154.03
2022-11-09T01:07:13.600Z,99151.25
2022-11-09T01:07:25.731Z,99149.41
2022-11-09T01:07:38.171Z,99143.13
2022-11-09T01:07:50.208Z,99147.44
2022-11-09T01:08:02.271Z,99149.13
2022-11-09T01:08:14.581Z,99148.97
2022-11-09T01:08:26.570Z,99153.19
2022-11-09T01:08:38.591Z,99153.13
2022-11-09T01:08:50.980Z,99154.78
2022-11-09T01:09:03.014Z,99157.41
2022-11-09T01:09:14.916Z,99143.53
2022-11-09T01:09:26.873Z,99146.13
2022-11-09T01:09:39.061Z,99146.97
2022-11-09T01:09:51.064Z,99146.97
2022-11-09T01:10:04.033Z,99145.13
2022-11-09T01:10:15.980Z,99147.84
2022-11-09T01:10:27.900Z,99142.50
2022-11-09T01:10:42.647Z,99154.59
2022-11-09T01:10:54.575Z,99147.66
2022-11-09T01:11:09.253Z,99151.88
2022-11-09T01:11:22.609Z,99153.56
2022-11-09T01:11:34.580Z,99148.28
2022-11-09T01:11:46.553Z,99146.50
2022-11-09T01:11:58.525Z,99140.41
2022-11-09T01:12:10.447Z,99146.38
2022-11-09T01:12:22.358Z,99148.06
2022-11-09T01:12:34.594Z,99142.84
2022-11-09T01:12:46.579Z,99148.81
2022-11-09T01:12:58.525Z,99149.59
2022-11-09T01:13:12.519Z,99146.06
2022-11-09T01:13:24.421Z,99147.75
2022-11-09T01:13:37.629Z,99149.44
2022-11-09T01:13:49.807Z,99145.91
2022-11-09T01:14:02.176Z,99152.97
2022-11-09T01:14:14.091Z,99158.19
2022-11-09T01:14:26.095Z,99158.19
2022-11-09T01:14:38.025Z,99152.13
2022-11-09T01:14:49.963Z,99154.66
2022-11-09T01:15:01.865Z,99154.66
2022-11-09T01:15:13.886Z,99158.25
2022-11-09T01:15:26.222Z,99161.16
2022-11-09T01:15:48.254Z,99164.44
2022-11-09T01:16:00.310Z,99163.03
2022-11-09T01:16:17.430Z,99176.06
2022-11-09T01:16:29.404Z,99169.97
2022-11-09T01:16:41.335Z,99173.94
2022-11-09T01:16:53.281Z,99174.13
2022-11-09T01:17:05.239Z,99174.88
2022-11-09T01:17:17.195Z,99175.66
2022-11-09T01:17:29.117Z,99176.44
2022-11-09T01:17:41.099Z,99175.50
2022-11-09T01:17:53.024Z,99181.72
2022-11-09T01:18:05.025Z,99186.09
2022-11-09T01:18:19.784Z,99185.25
2022-11-09T01:18:31.806Z,99186.22
2022-11-09T01:18:44.138Z,99180.31
2022-11-09T01:18:57.811Z,99184.69
2022-11-09T01:19:09.846Z,99182.84
2022-11-09T01:19:21.786Z,99191.44
2022-11-09T01:19:33.693Z,99185.25
2022-11-09T01:19:45.604Z,99182.53
2022-11-09T01:19:57.512Z,99189.47
2022-11-09T01:20:10.157Z,99185.91
2022-11-09T01:20:22.092Z,99184.94
2022-11-09T01:20:34.026Z,99180.69
2022-11-09T01:20:49.082Z,99184.09
2022-11-09T01:21:03.445Z,99178.03
2022-11-09T01:21:15.885Z,99179.72
2022-11-09T01:21:29.550Z,99173.50
2022-11-09T01:21:41.574Z,99175.19
2022-11-09T01:21:53.512Z,99174.22
2022-11-09T01:22:05.447Z,99176.72
2022-11-09T01:22:19.070Z,99168.75
2022-11-09T01:22:31.033Z,99167.81
2022-11-09T01:22:43.159Z,99171.22
2022-11-09T01:22:55.087Z,99174.59
2022-11-09T01:23:08.146Z,99177.06
2022-11-09T01:23:21.423Z,99171.00
2022-11-09T01:23:34.356Z,99170.94
2022-11-09T01:23:46.400Z,99167.69
2022-11-09T01:23:58.916Z,99167.69
2022-11-09T01:24:10.844Z,99164.16
2022-11-09T01:24:22.879Z,99174.59
2022-11-09T01:24:34.787Z,99172.75
2022-11-09T01:24:46.748Z,99171.91
2022-11-09T01:24:58.668Z,99171.91
2022-11-09T01:25:10.586Z,99169.22
2022-11-09T01:25:22.547Z,99171.84
2022-11-09T01:25:34.756Z,99176.16
2022-11-09T01:25:46.716Z,99169.28
2022-11-09T01:26:00.764Z,99175.44
2022-11-09T01:26:14.381Z,99172.91
2022-11-09T01:26:26.429Z,99171.97
2022-11-09T01:26:38.346Z,99170.38
2022-11-09T01:26:50.280Z,99172.91
2022-11-09T01:27:02.206Z,99174.59
2022-11-09T01:27:14.190Z,99165.84
2022-11-09T01:27:26.144Z,99169.38
2022-11-09T01:27:38.080Z,99166.69
2022-11-09T01:27:49.981Z,99164.84
2022-11-09T01:28:02.186Z,99165.72
2022-11-09T01:28:14.147Z,99171.69
2022-11-09T01:28:26.407Z,99163.00
2022-11-09T01:28:38.625Z,99167.38
2022-11-09T01:28:50.568Z,99169.94
2022-11-09T01:29:02.715Z,99167.25
2022-11-09T01:29:14.651Z,99168.09
2022-11-09T01:29:26.621Z,99168.78
2022-11-09T01:29:38.603Z,99173.06
2022-11-09T01:29:50.509Z,99168.78
2022-11-09T01:30:02.852Z,99174.00
2022-11-09T01:30:14.773Z,99170.44
2022-11-09T01:30:26.732Z,99172.22
2022-11-09T01:30:41.652Z,99175.84
2022-11-09T01:30:54.072Z,99174.84
2022-11-09T01:31:12.145Z,99181.06
2022-11-09T01:31:24.132Z,99186.09
2022-11-09T01:31:36.052Z,99183.50
2022-11-09T01:31:48.905Z,99185.28
2022-11-09T01:32:00.807Z,99186.28
2022-11-09T01:32:12.712Z,99187.94
2022-11-09T01:32:24.638Z,99193.09
2022-11-09T01:32:36.553Z,99191.50
2022-11-09T01:32:48.465Z,99198.56
2022-11-09T01:33:00.414Z,99194.16
2022-11-09T01:33:12.499Z,99188.94
2022-11-09T01:33:24.416Z,99184.56
2022-11-09T01:33:37.042Z,99192.47
2022-11-09T01:33:49.104Z,99189.97
2022-11-09T01:34:00.995Z,99193.47
2022-11-09T01:34:13.008Z,99191.63
2022-11-09T01:34:24.937Z,99198.56
2022-11-09T01:34:36.917Z,99191.38
2022-11-09T01:34:48.825Z,99190.50
2022-11-09T01:35:00.795Z,99193.94
2022-11-09T01:35:12.744Z,99192.25
2022-11-09T01:35:24.652Z,99194.88
2022-11-09T01:35:38.365Z,99197.38
2022-11-09T01:35:50.300Z,99198.25
2022-11-09T01:36:07.466Z,99192.84
2022-11-09T01:36:22.290Z,99196.31
2022-11-09T01:36:34.220Z,99197.16
2022-11-09T01:36:46.147Z,99198.91
2022-11-09T01:36:59.152Z,99195.41
2022-11-09T01:37:11.061Z,99195.41
2022-11-09T01:37:23.296Z,99191.00
2022-11-09T01:37:35.226Z,99196.22
2022-11-09T01:37:47.165Z,99198.00
2022-11-09T01:37:59.114Z,99194.56
2022-11-09T01:38:11.085Z,99197.06
2022-11-09T01:38:23.065Z,99194.56
2022-11-09T01:38:38.266Z,99193.78
2022-11-09T01:38:50.892Z,99198.06
2022-11-09T01:39:02.887Z,99196.31
2022-11-09T01:39:14.820Z,99198.16
2022-11-09T01:39:26.765Z,99199.78
2022-11-09T01:39:38.680Z,99198.06
2022-11-09T01:39:50.600Z,99194.56
2022-11-09T01:40:02.617Z,99195.34
2022-11-09T01:40:14.770Z,99200.53
2022-11-09T01:40:28.325Z,99198.72
2022-11-09T01:40:40.657Z,99196.94
2022-11-09T01:40:52.555Z,99204.69
2022-11-09T01:41:06.140Z,99199.47
2022-11-09T01:41:19.878Z,99199.31
2022-11-09T01:41:31.800Z,99202.84
2022-11-09T01:41:43.751Z,99192.41
2022-11-09T01:41:55.685Z,99197.63
2022-11-09T01:42:07.593Z,99192.31
2022-11-09T01:42:26.388Z,99194.84
2022-11-09T01:42:39.117Z,99193.94
2022-11-09T01:42:51.041Z,99193.88
2022-11-09T01:43:15.123Z,99199.00
2022-11-09T01:43:27.358Z,99190.25
2022-11-09T01:43:39.414Z,99191.03
2022-11-09T01:44:03.404Z,99197.91
2022-11-09T01:44:19.578Z,99184.88
2022-11-09T01:44:32.096Z,99190.09
2022-11-09T01:44:44.014Z,99191.78
2022-11-09T01:45:17.558Z,99190.94
2022-11-09T01:45:30.991Z,99197.06
2022-11-09T01:45:48.641Z,99186.72
2022-11-09T01:46:05.543Z,99190.09
2022-11-09T01:46:24.886Z,99191.78
2022-11-09T01:46:45.418Z,99195.22
2022-11-09T01:47:03.389Z,99188.25
2022-11-09T01:47:24.799Z,99183.88
2022-11-09T01:47:36.720Z,99183.78
2022-11-09T01:47:58.637Z,99184.72
2022-11-09T01:48:18.324Z,99182.03
2022-11-09T01:48:47.867Z,99182.88
2022-11-09T01:49:05.303Z,99179.31
2022-11-09T01:49:40.835Z,99184.50
2022-11-09T01:49:56.571Z,99179.22
2022-11-09T01:50:11.780Z,99184.44
2022-11-09T01:50:32.376Z,99182.75
2022-11-09T01:51:19.989Z,99185.34
2022-11-09T01:51:38.178Z,99183.59
2022-11-09T01:51:56.189Z,99174.00
2022-11-09T01:52:13.962Z,99174.91
2022-11-09T01:52:32.322Z,99181.94
2022-11-09T01:52:48.105Z,99171.50
2022-11-09T01:53:03.900Z,99170.66
2022-11-09T01:53:20.957Z,99175.03
2022-11-09T01:53:36.895Z,99174.09
2022-11-09T01:53:52.920Z,99177.66
2022-11-09T01:54:30.191Z,99178.41
2022-11-09T01:54:45.976Z,99177.50
2022-11-09T01:55:03.122Z,99174.00
2022-11-09T01:55:23.112Z,99169.63
2022-11-09T01:55:36.000Z,99161.84
2022-11-09T01:55:52.834Z,99162.72
2022-11-09T01:56:09.050Z,99165.34
2022-11-09T01:56:21.017Z,99161.84
2022-11-09T01:56:33.380Z,99156.63
2022-11-09T01:56:48.420Z,99162.72
2022-11-09T01:57:05.889Z,99161.84
2022-11-09T01:57:41.237Z,99163.56
2022-11-09T01:58:27.709Z,99160.94
2022-11-09T01:59:51.590Z,99165.22
2022-11-09T02:00:07.953Z,99167.94
2022-11-09T02:00:20.403Z,99169.75
2022-11-09T02:00:34.700Z,99166.25
2022-11-09T02:00:50.121Z,99167.22
2022-11-09T02:01:02.945Z,99169.06
2022-11-09T02:01:17.650Z,99165.69
2022-11-09T02:01:31.328Z,99165.81
2022-11-09T02:01:44.046Z,99167.53
2022-11-09T02:01:56.756Z,99171.81
2022-11-09T02:02:09.260Z,99174.41
2022-11-09T02:02:21.832Z,99169.19
2022-11-09T02:02:35.281Z,99163.97
2022-11-09T02:03:02.604Z,99173.50
2022-11-09T02:03:30.977Z,99163.84
2022-11-09T02:03:54.077Z,99168.22
2022-11-09T02:04:11.764Z,99167.34
2022-11-09T02:04:30.416Z,99162.13
2022-11-09T02:04:55.461Z,99163.91
2022-11-09T02:05:12.408Z,99156.09
2022-11-09T02:05:28.065Z,99157.09
2022-11-09T02:05:41.771Z,99150.88
2022-11-09T02:05:54.031Z,99151.69
2022-11-09T02:06:10.086Z,99154.25
2022-11-09T02:06:25.549Z,99150.78
2022-11-09T02:06:37.720Z,99153.41
2022-11-09T02:06:50.650Z,99155.06
2022-11-09T02:07:03.076Z,99155.06
2022-11-09T02:07:15.282Z,99155.06
2022-11-09T02:07:27.808Z,99158.63
2022-11-09T02:07:41.370Z,99156.00
2022-11-09T02:07:55.177Z,99160.47
2022-11-09T02:08:08.858Z,99156.25
2022-11-09T02:08:25.073Z,99158.00
2022-11-09T02:08:37.454Z,99158.09
2022-11-09T02:08:49.567Z,99145.13
2022-11-09T02:09:10.010Z,99156.41
2022-11-09T02:09:51.464Z,99151.09
2022-11-09T02:10:14.829Z,99153.72
2022-11-09T02:10:35.619Z,99145.97
2022-11-09T02:11:07.434Z,99155.69
2022-11-09T02:11:20.941Z,99148.81
2022-11-09T02:11:34.697Z,99152.19
2022-11-09T02:11:46.652Z,99146.97
2022-11-09T02:11:59.382Z,99153.88
2022-11-09T02:12:11.441Z,99153.88
2022-11-09T02:12:25.258Z,99158.25
2022-11-09T02:12:37.370Z,99157.72
2022-11-09T02:12:49.941Z,99165.75
2022-11-09T02:13:03.372Z,99156.25
2022-11-09T02:13:19.017Z,99158.88
2022-11-09T02:13:33.121Z,99157.09
2022-11-09T02:13:51.703Z,99156.19
2022-11-09T02:14:06.428Z,99156.84
2022-11-09T02:14:20.666Z,99155.13
2022-11-09T02:14:33.897Z,99161.94
2022-11-09T02:14:49.213Z,99156.72
2022-11-09T02:15:05.358Z,99159.25
2022-11-09T02:15:17.361Z,99160.09
2022-11-09T02:15:29.970Z,99163.47
2022-11-09T02:15:45.688Z,99164.31
2022-11-09T02:15:58.977Z,99153.88
2022-11-09T02:16:13.299Z,99155.56
2022-11-09T02:16:26.516Z,99164.16
2022-11-09T02:16:40.246Z,99164.16
2022-11-09T02:16:52.326Z,99167.53
2022-11-09T02:17:05.103Z,99159.69
2022-11-09T02:17:18.641Z,99169.19
2022-11-09T02:17:31.037Z,99172.56
2022-11-09T02:17:44.183Z,99167.34
2022-11-09T02:17:58.197Z,99165.69
2022-11-09T02:18:10.900Z,99165.75
2022-11-09T02:18:23.063Z,99169.19
2022-11-09T02:18:36.580Z,99171.06
2022-11-09T02:18:56.528Z,99175.38
2022-11-09T02:19:08.515Z,99167.53
2022-11-09T02:19:20.438Z,99169.19
2022-11-09T02:19:32.351Z,99169.19
2022-11-09T02:19:44.261Z,99171.81
2022-11-09T02:19:58.637Z,99167.53
2022-11-09T02:20:15.478Z,99165.69
2022-11-09T02:20:28.405Z,99164.84
2022-11-09T02:20:49.476Z,99165.69
2022-11-09T02:21:01.559Z,99169.06
2022-11-09T02:21:13.505Z,99162.06
2022-11-09T02:21:28.396Z,99160.28
2022-11-09T02:21:40.389Z,99168.06
2022-11-09T02:21:52.334Z,99163.66
2022-11-09T02:22:04.391Z,99163.66
2022-11-09T02:22:16.701Z,99162.84
2022-11-09T02:22:28.606Z,99169.81
2022-11-09T02:22:41.611Z,99167.16
2022-11-09T02:22:53.585Z,99162.75
2022-11-09T02:23:05.542Z,99165.38
2022-11-09T02:23:19.268Z,99156.63
2022-11-09T02:23:31.468Z,99163.56
2022-11-09T02:23:43.435Z,99160.94
2022-11-09T02:23:55.944Z,99165.22
2022-11-09T02:24:08.040Z,99166.16
2022-11-09T02:24:20.043Z,99158.34
2022-11-09T02:24:33.107Z,99160.16
2022-11-09T02:24:45.277Z,99160.28
2022-11-09T02:24:57.194Z,99164.75
2022-11-09T02:25:10.445Z,99160.47
2022-11-09T02:25:22.468Z,99162.31
2022-11-09T02:25:34.369Z,99162.31
2022-11-09T02:25:54.008Z,99163.97
2022-11-09T02:26:10.690Z,99165.69
2022-11-09T02:26:25.078Z,99164.84
2022-11-09T02:26:47.614Z,99162.13
2022-11-09T02:26:59.872Z,99163.00
2022-11-09T02:27:11.814Z,99163.00
2022-11-09T02:27:24.352Z,99157.69
2022-11-09T02:27:37.602Z,99153.41
2022-11-09T02:27:50.139Z,99156.91
2022-11-09T02:28:02.155Z,99149.84
2022-11-09T02:28:16.289Z,99162.00
2022-11-09T02:28:28.881Z,99152.47
2022-11-09T02:28:42.303Z,99146.47
2022-11-09T02:28:56.204Z,99150.88
2022-11-09T02:29:12.066Z,99153.53
2022-11-09T02:29:28.420Z,99155.25
2022-11-09T02:29:46.513Z,99158.75
2022-11-09T02:30:00.036Z,99158.75
2022-11-09T02:30:13.530Z,99157.09
2022-11-09T02:30:25.707Z,99155.38
2022-11-09T02:30:38.894Z,99159.78
2022-11-09T02:30:53.604Z,99160.59
2022-11-09T02:31:08.297Z,99157.25
2022-11-09T02:31:22.463Z,99161.56
2022-11-09T02:31:38.679Z,99158.94
2022-11-09T02:32:02.374Z,99165.81
2022-11-09T02:32:20.893Z,99169.38
2022-11-09T02:32:33.197Z,99172.75
2022-11-09T02:32:45.096Z,99168.38
2022-11-09T02:32:57.003Z,99168.31
2022-11-09T02:33:08.903Z,99168.31
2022-11-09T02:33:21.677Z,99169.06
2022-11-09T02:34:11.798Z,99171.59
2022-11-09T02:34:24.735Z,99168.88
2022-11-09T02:34:36.712Z,99175.81
2022-11-09T02:34:48.665Z,99172.28
2022-11-09T02:35:00.634Z,99179.22
2022-11-09T02:35:13.451Z,99175.78
2022-11-09T02:35:25.354Z,99168.78
2022-11-09T02:35:37.308Z,99167.06
2022-11-09T02:35:49.309Z,99169.63
2022-11-09T02:36:01.232Z,99168.78
2022-11-09T02:36:13.169Z,99170.44
2022-11-09T02:36:25.353Z,99173.81
2022-11-09T02:36:37.400Z,99170.31
2022-11-09T02:36:49.346Z,99167.75
2022-11-09T02:37:01.291Z,99173.00
2022-11-09T02:37:13.240Z,99173.00
2022-11-09T02:37:27.974Z,99169.53
2022-11-09T02:37:49.885Z,99166.94
2022-11-09T02:38:01.889Z,99166.09
2022-11-09T02:38:15.191Z,99173.81
2022-11-09T02:38:27.103Z,99173.06
2022-11-09T02:38:39.012Z,99167.84
2022-11-09T02:38:54.535Z,99167.94
2022-11-09T02:39:06.891Z,99168.78
2022-11-09T02:39:23.040Z,99169.53
2022-11-09T02:39:35.258Z,99171.22
2022-11-09T02:39:47.228Z,99172.16
2022-11-09T02:40:01.387Z,99165.22